< < Back
Terminal Aerodrome Forecast


Current Version              Previous Versions:   1  2  3  4  5  6  7  8  9  

Terminal Aerodrome Forecast

461
FTUS42 KTAE 282300
TAFABY
TAF
KABY 282320Z 2900/2924 VRB03KT P6SM SKC
     FM291600 16006KT P6SM SCT250=

Latest METAR

887
SAUS70 KWBC 282356
MTRABY
METAR KABY 282353Z 00000KT 10SM CLR 07/02 A3028 RMK AO2 SLP255 T00720017
10133 20072 50006


USA.gov is the U.S. government's official web portal to all federal, state and local government web resources and services.